Time;durP1;ratioP1;P1;durP2;ratioP2;P2;SDS_P1;SDS_P2;PMS_P1;PMS_P2;Temp;Humidity;BMP_temperature;BMP_pressure;BME280_temperature;BME280_humidity;BME280_pressure;Samples;Min_cycle;Max_cycle;Signal;HPM_P1;HPM_P2
2024/02/21 00:01:39;;;;;;;23.42;7.88;;;8.00;99.90;;;;;;5043405;28;20029;-66
2024/02/21 00:04:05;;;;;;;20.27;7.05;;;7.90;99.90;;;;;;5049031;28;20036;-66
2024/02/21 00:06:31;;;;;;;23.75;7.93;;;8.00;99.90;;;;;;5046452;28;20036;-66
2024/02/21 00:08:57;;;;;;;23.33;6.80;;;8.00;99.90;;;;;;5051274;28;20507;-66
2024/02/21 00:11:22;;;;;;;20.92;5.53;;;8.00;99.90;;;;;;5045006;28;20063;-66
2024/02/21 00:13:48;;;;;;;20.55;6.80;;;8.00;99.90;;;;;;5052715;28;20060;-66
2024/02/21 00:16:15;;;;;;;26.25;8.00;;;8.10;99.90;;;;;;5056193;28;20045;-66
2024/02/21 00:18:41;;;;;;;23.30;7.07;;;8.00;99.90;;;;;;5049623;28;20028;-66
2024/02/21 00:21:07;;;;;;;25.15;8.35;;;8.10;99.90;;;;;;5052509;28;20020;-66
2024/02/21 00:23:33;;;;;;;26.10;8.13;;;8.10;99.90;;;;;;5051810;28;20395;-67
2024/02/21 00:25:58;;;;;;;23.10;7.05;;;8.00;99.90;;;;;;5041301;28;20033;-66
2024/02/21 00:28:24;;;;;;;22.98;8.18;;;8.00;99.90;;;;;;5054366;28;20033;-66
2024/02/21 00:30:50;;;;;;;17.20;6.80;;;8.10;99.90;;;;;;5043178;28;20063;-67
2024/02/21 00:33:17;;;;;;;21.52;8.23;;;8.00;99.90;;;;;;5048567;28;20078;-66
2024/02/21 00:35:42;;;;;;;21.27;6.50;;;8.00;99.90;;;;;;5044891;28;20025;-66
2024/02/21 00:38:08;;;;;;;22.10;7.53;;;8.00;99.90;;;;;;5037898;28;20241;-66
2024/02/21 00:40:35;;;;;;;16.75;7.35;;;8.00;99.90;;;;;;5048891;28;20026;-67
2024/02/21 00:43:01;;;;;;;24.50;7.75;;;7.90;99.90;;;;;;5044828;28;20061;-67
2024/02/21 00:45:26;;;;;;;18.85;7.15;;;8.10;99.90;;;;;;5046857;28;20060;-67
2024/02/21 00:47:52;;;;;;;21.75;7.65;;;8.00;99.90;;;;;;5043530;28;20063;-66
2024/02/21 00:50:17;;;;;;;20.17;7.57;;;8.00;99.90;;;;;;5044938;28;20021;-67
2024/02/21 00:52:44;;;;;;;21.73;7.28;;;7.90;99.90;;;;;;5044382;28;20025;-67
2024/02/21 00:55:09;;;;;;;25.08;8.60;;;8.00;99.90;;;;;;5048567;28;20031;-67
2024/02/21 00:57:35;;;;;;;26.10;7.90;;;8.00;99.90;;;;;;5042263;28;20029;-67
2024/02/21 01:00:05;;;;;;;26.65;8.70;;;8.00;99.90;;;;;;5045108;28;20030;-67
2024/02/21 01:02:33;;;;;;;18.20;7.43;;;7.90;99.90;;;;;;5044704;28;20028;-67
2024/02/21 01:04:59;;;;;;;17.98;7.60;;;7.90;99.90;;;;;;5051022;28;20084;-67
2024/02/21 01:07:24;;;;;;;26.52;8.18;;;8.00;99.90;;;;;;5047121;28;20531;-67
2024/02/21 01:09:53;;;;;;;25.55;8.35;;;7.90;99.90;;;;;;5048387;28;20028;-67
2024/02/21 01:12:19;;;;;;;26.23;8.80;;;8.00;99.90;;;;;;5045550;28;20040;-67
2024/02/21 01:14:46;;;;;;;22.00;7.85;;;8.00;99.90;;;;;;5053788;28;20040;-67
2024/02/21 01:17:12;;;;;;;22.63;8.35;;;8.00;99.90;;;;;;5049268;28;20039;-67
2024/02/21 01:19:38;;;;;;;26.08;9.25;;;8.00;99.90;;;;;;5053400;28;20036;-67
2024/02/21 01:22:04;;;;;;;24.13;8.18;;;8.00;99.90;;;;;;5049471;28;20121;-68
2024/02/21 01:24:29;;;;;;;21.33;7.78;;;8.00;99.90;;;;;;5046503;28;20533;-68
2024/02/21 01:26:55;;;;;;;22.17;8.50;;;8.00;99.90;;;;;;5054313;28;20799;-67
2024/02/21 01:29:20;;;;;;;21.42;8.50;;;8.00;99.90;;;;;;5045600;28;20035;-67
2024/02/21 01:31:47;;;;;;;22.98;7.70;;;8.00;99.90;;;;;;5059119;28;20057;-68
2024/02/21 01:34:13;;;;;;;22.48;7.55;;;8.00;99.90;;;;;;5041347;28;20140;-68
2024/02/21 01:36:38;;;;;;;17.73;6.68;;;8.00;99.90;;;;;;5045490;28;20112;-68
2024/02/21 01:39:04;;;;;;;25.35;9.02;;;8.00;99.90;;;;;;5043073;28;20036;-68
2024/02/21 01:41:31;;;;;;;25.30;8.55;;;8.00;99.90;;;;;;5043648;28;20093;-68
2024/02/21 01:43:56;;;;;;;19.98;7.45;;;8.00;99.90;;;;;;5040742;28;20056;-68
2024/02/21 01:46:23;;;;;;;20.17;7.25;;;8.00;99.90;;;;;;5045057;28;20034;-68
2024/02/21 01:48:49;;;;;;;19.70;6.85;;;8.00;99.90;;;;;;5040630;28;20032;-68
2024/02/21 01:51:15;;;;;;;22.27;8.23;;;8.00;99.90;;;;;;5044383;28;20037;-67
2024/02/21 01:53:45;;;;;;;17.45;6.85;;;8.00;99.90;;;;;;5041761;28;20360;-67
2024/02/21 01:56:13;;;;;;;20.13;6.97;;;7.90;99.90;;;;;;5043301;28;20476;-65
2024/02/21 01:58:42;;;;;;;19.05;6.10;;;7.90;99.90;;;;;;5047673;28;20079;-67
2024/02/21 02:01:08;;;;;;;22.00;7.75;;;7.90;99.90;;;;;;5044080;28;20033;-66
2024/02/21 02:03:34;;;;;;;23.90;7.97;;;7.90;99.90;;;;;;5043329;28;20025;-67
2024/02/21 02:06:00;;;;;;;17.73;5.78;;;7.90;99.90;;;;;;5035894;28;20038;-66
2024/02/21 02:08:25;;;;;;;29.52;8.70;;;7.90;99.90;;;;;;5040675;28;20049;-65
2024/02/21 02:10:52;;;;;;;20.55;7.43;;;8.00;99.90;;;;;;5043020;28;20064;-65
2024/02/21 02:13:18;;;;;;;22.88;7.35;;;7.90;99.90;;;;;;5041664;28;20153;-65
2024/02/21 02:15:45;;;;;;;21.90;7.85;;;7.90;99.90;;;;;;5040902;28;20030;-65
2024/02/21 02:18:13;;;;;;;22.40;7.47;;;8.00;99.90;;;;;;5038610;28;20021;-67
2024/02/21 02:20:39;;;;;;;23.30;7.80;;;7.90;99.90;;;;;;5041000;28;20036;-66
2024/02/21 02:23:11;;;;;;;23.60;8.55;;;8.00;99.90;;;;;;5038926;28;20026;-66
2024/02/21 02:25:37;;;;;;;20.67;7.93;;;8.00;99.90;;;;;;5041901;28;20488;-67
2024/02/21 02:28:04;;;;;;;26.55;8.70;;;8.00;99.90;;;;;;5039773;28;20021;-68
2024/02/21 02:30:36;;;;;;;24.73;7.55;;;8.00;99.90;;;;;;5042530;28;20036;-67
2024/02/21 02:33:05;;;;;;;18.60;6.72;;;7.90;99.90;;;;;;5042003;28;20032;-67
2024/02/21 02:35:31;;;;;;;21.48;8.50;;;7.90;99.90;;;;;;5043149;28;20033;-66
2024/02/21 02:37:57;;;;;;;22.65;7.38;;;7.90;99.90;;;;;;5039445;28;20477;-66
2024/02/21 02:40:23;;;;;;;24.10;8.35;;;7.90;99.90;;;;;;5039781;28;20071;-66
2024/02/21 02:42:49;;;;;;;23.58;7.32;;;7.80;99.90;;;;;;5048676;28;20048;-65
2024/02/21 02:45:16;;;;;;;18.73;7.18;;;7.80;99.90;;;;;;5062844;28;20120;-65
2024/02/21 02:47:41;;;;;;;27.38;8.40;;;7.80;99.90;;;;;;5051533;28;20342;-66
2024/02/21 02:50:07;;;;;;;23.30;6.80;;;7.80;99.90;;;;;;5050567;28;20025;-65
2024/02/21 02:52:33;;;;;;;24.38;7.47;;;7.70;99.90;;;;;;5049359;28;20064;-66
2024/02/21 02:54:59;;;;;;;29.90;9.65;;;7.70;99.90;;;;;;5052538;28;20426;-65
2024/02/21 02:57:25;;;;;;;27.30;8.27;;;7.70;99.90;;;;;;5048604;28;20111;-65
2024/02/21 02:59:51;;;;;;;20.98;6.18;;;7.60;99.90;;;;;;5050248;28;20472;-65
2024/02/21 03:02:17;;;;;;;22.92;8.35;;;7.50;99.90;;;;;;5069029;28;20108;-66
2024/02/21 03:04:44;;;;;;;27.25;8.32;;;7.60;99.90;;;;;;5045283;28;20166;-66
2024/02/21 03:07:11;;;;;;;24.98;7.75;;;7.60;99.90;;;;;;5044247;28;20032;-66
2024/02/21 03:09:37;;;;;;;24.58;8.75;;;7.60;99.90;;;;;;5048130;28;20051;-65
2024/02/21 03:12:04;;;;;;;24.30;8.10;;;7.60;99.90;;;;;;5048928;28;20028;-66
2024/02/21 03:14:29;;;;;;;19.90;7.45;;;7.60;99.90;;;;;;5046500;28;20515;-66
2024/02/21 03:16:56;;;;;;;16.33;5.82;;;7.60;99.90;;;;;;5052589;28;20100;-65
2024/02/21 03:19:22;;;;;;;23.60;7.63;;;7.70;99.90;;;;;;5039547;28;20693;-66
2024/02/21 03:21:49;;;;;;;17.48;5.97;;;7.60;99.90;;;;;;5042583;28;20050;-66
2024/02/21 03:24:15;;;;;;;19.92;7.53;;;7.70;99.90;;;;;;5040530;28;20993;-66
2024/02/21 03:26:41;;;;;;;19.30;7.57;;;7.80;99.90;;;;;;5040393;28;20029;-66
2024/02/21 03:29:07;;;;;;;16.35;5.50;;;7.80;99.90;;;;;;5041456;28;20029;-65
2024/02/21 03:31:33;;;;;;;21.27;7.47;;;7.80;99.90;;;;;;5040978;28;20029;-66
2024/02/21 03:33:59;;;;;;;24.20;7.47;;;7.90;99.90;;;;;;5040985;28;20577;-66
2024/02/21 03:36:24;;;;;;;16.98;5.70;;;7.90;99.90;;;;;;5041626;28;20029;-66
2024/02/21 03:38:50;;;;;;;16.52;5.53;;;7.90;99.90;;;;;;5041282;28;20024;-67
2024/02/21 03:41:15;;;;;;;18.67;6.38;;;7.90;99.90;;;;;;5037903;28;20024;-66
2024/02/21 03:43:41;;;;;;;18.58;6.68;;;7.90;99.90;;;;;;5039627;28;20057;-66
2024/02/21 03:46:07;;;;;;;20.02;6.40;;;8.00;99.90;;;;;;5041731;28;20033;-66
2024/02/21 03:48:32;;;;;;;18.85;6.97;;;7.90;99.90;;;;;;5039697;28;20021;-66
2024/02/21 03:50:58;;;;;;;19.42;6.80;;;7.90;99.90;;;;;;5040110;28;20031;-66
2024/02/21 03:53:24;;;;;;;19.80;7.43;;;7.90;99.90;;;;;;5037127;28;20033;-66
2024/02/21 03:55:50;;;;;;;28.55;7.00;;;7.90;99.90;;;;;;5037791;28;20052;-66
2024/02/21 03:58:15;;;;;;;21.75;7.88;;;7.90;99.90;;;;;;5043314;28;20017;-65
2024/02/21 04:00:41;;;;;;;21.50;7.90;;;7.90;99.90;;;;;;5040805;28;20017;-66
2024/02/21 04:03:07;;;;;;;20.48;7.50;;;7.90;99.90;;;;;;5039990;28;20033;-66
2024/02/21 04:05:33;;;;;;;16.63;6.28;;;7.90;99.90;;;;;;5037132;28;20030;-66
2024/02/21 04:07:58;;;;;;;22.27;7.45;;;7.90;99.90;;;;;;5042177;28;20484;-66
2024/02/21 04:10:24;;;;;;;20.27;7.35;;;8.00;99.90;;;;;;5040920;28;20025;-65
2024/02/21 04:12:50;;;;;;;19.25;6.13;;;7.90;99.90;;;;;;5040123;28;20045;-66
2024/02/21 04:15:16;;;;;;;19.05;7.63;;;8.00;99.90;;;;;;5039026;28;20116;-66
2024/02/21 04:17:42;;;;;;;19.40;6.70;;;8.00;99.90;;;;;;5042806;28;20707;-66
2024/02/21 04:20:14;;;;;;;16.38;5.60;;;8.00;99.90;;;;;;5038310;28;20025;-66
2024/02/21 04:22:40;;;;;;;20.25;7.28;;;8.00;99.90;;;;;;5039977;28;20018;-66
2024/02/21 04:25:06;;;;;;;19.92;7.13;;;8.10;99.90;;;;;;5040158;28;20476;-66
2024/02/21 04:27:32;;;;;;;21.48;7.85;;;8.00;99.90;;;;;;5040166;28;20103;-66
2024/02/21 04:29:57;;;;;;;20.08;6.05;;;8.10;99.90;;;;;;5039059;28;20112;-66
2024/02/21 04:32:23;;;;;;;20.73;8.10;;;8.00;99.90;;;;;;5045629;28;20055;-66
2024/02/21 04:34:49;;;;;;;17.90;6.65;;;8.00;99.90;;;;;;5034042;28;20040;-66
2024/02/21 04:37:14;;;;;;;19.65;6.97;;;8.10;99.90;;;;;;5038849;28;20342;-66
2024/02/21 04:39:40;;;;;;;12.80;4.68;;;8.00;99.90;;;;;;5038721;28;20028;-65
2024/02/21 04:42:06;;;;;;;18.83;7.00;;;8.00;99.90;;;;;;5039704;28;20079;-65
2024/02/21 04:44:31;;;;;;;18.02;6.80;;;8.00;99.90;;;;;;5038063;28;20098;-66
2024/02/21 04:46:58;;;;;;;23.95;8.05;;;8.00;99.90;;;;;;5037929;28;20048;-66
2024/02/21 04:49:23;;;;;;;20.58;6.97;;;8.00;99.90;;;;;;5042044;28;20628;-66
2024/02/21 04:51:49;;;;;;;21.95;7.25;;;8.00;99.90;;;;;;5040081;28;20030;-67
2024/02/21 04:54:15;;;;;;;19.60;6.28;;;8.00;99.90;;;;;;5049244;28;20056;-67
2024/02/21 04:56:40;;;;;;;13.52;4.93;;;8.00;99.90;;;;;;5042775;28;20021;-67
2024/02/21 04:59:06;;;;;;;18.63;5.93;;;8.00;99.90;;;;;;5047623;28;20367;-67
2024/02/21 05:01:32;;;;;;;17.45;7.13;;;8.00;99.90;;;;;;5044625;28;20029;-66
2024/02/21 05:03:57;;;;;;;17.35;6.43;;;8.00;99.90;;;;;;5048634;28;20047;-67
2024/02/21 05:06:23;;;;;;;18.52;6.03;;;8.00;99.90;;;;;;5043316;28;20037;-66
2024/02/21 05:08:49;;;;;;;16.13;5.82;;;7.90;99.90;;;;;;5044389;28;20035;-66
2024/02/21 05:11:14;;;;;;;20.42;6.57;;;7.90;99.90;;;;;;5041158;28;20044;-66
2024/02/21 05:13:40;;;;;;;20.40;7.40;;;7.90;99.90;;;;;;5041863;28;20045;-66
2024/02/21 05:16:06;;;;;;;17.67;6.47;;;7.90;99.90;;;;;;5045468;28;20488;-66
2024/02/21 05:18:33;;;;;;;16.98;6.95;;;7.90;99.90;;;;;;5043763;28;20032;-66
2024/02/21 05:20:59;;;;;;;12.32;5.57;;;8.00;99.90;;;;;;5040490;28;20025;-66
2024/02/21 05:23:24;;;;;;;20.38;6.88;;;8.00;99.90;;;;;;5043261;28;20372;-66
2024/02/21 05:25:50;;;;;;;16.75;7.80;;;8.00;99.90;;;;;;5047359;28;20021;-66
2024/02/21 05:28:16;;;;;;;21.63;7.15;;;7.90;99.90;;;;;;5041131;28;20029;-66
2024/02/21 05:30:43;;;;;;;17.10;6.72;;;8.00;99.90;;;;;;5047489;28;20123;-66
2024/02/21 05:33:09;;;;;;;13.85;5.35;;;8.00;99.90;;;;;;5045457;28;20032;-66
2024/02/21 05:35:35;;;;;;;16.77;5.70;;;8.00;99.90;;;;;;5039985;28;20029;-66
2024/02/21 05:38:04;;;;;;;16.58;6.47;;;8.00;99.90;;;;;;5044639;28;20720;-66
2024/02/21 05:40:29;;;;;;;13.65;5.47;;;8.00;99.90;;;;;;5046021;28;20044;-66
2024/02/21 05:42:55;;;;;;;16.80;5.68;;;8.00;99.90;;;;;;5040605;28;20074;-66
2024/02/21 05:45:21;;;;;;;21.45;5.82;;;8.00;99.90;;;;;;5047971;28;20091;-66
2024/02/21 05:47:46;;;;;;;22.42;6.30;;;8.00;99.90;;;;;;5040351;28;20072;-66
2024/02/21 05:50:12;;;;;;;15.50;5.78;;;8.00;99.90;;;;;;5037452;28;20025;-66
2024/02/21 05:52:37;;;;;;;13.10;4.93;;;8.00;99.90;;;;;;5040514;28;20482;-66
2024/02/21 05:55:03;;;;;;;14.43;5.63;;;8.00;99.90;;;;;;5040545;28;20108;-66
2024/02/21 05:57:29;;;;;;;16.65;6.20;;;8.00;99.90;;;;;;5042146;28;20025;-66
2024/02/21 05:59:54;;;;;;;14.88;5.18;;;8.00;99.90;;;;;;5034922;28;20049;-67
2024/02/21 06:02:20;;;;;;;15.27;5.63;;;8.00;99.90;;;;;;5039789;28;20457;-67
2024/02/21 06:04:46;;;;;;;17.20;5.50;;;8.00;99.90;;;;;;5036764;28;20140;-67
2024/02/21 06:07:11;;;;;;;16.10;5.13;;;8.00;99.90;;;;;;5041980;28;20079;-67
2024/02/21 06:09:37;;;;;;;13.77;5.03;;;8.20;99.90;;;;;;5045063;28;20041;-67
2024/02/21 06:12:03;;;;;;;13.18;4.18;;;8.00;99.90;;;;;;5041824;28;20045;-67
2024/02/21 06:14:29;;;;;;;18.48;4.85;;;8.00;99.90;;;;;;5040239;28;20045;-67
2024/02/21 06:16:54;;;;;;;13.80;5.20;;;8.00;99.90;;;;;;5039268;28;20021;-67
2024/02/21 06:19:20;;;;;;;13.48;5.18;;;8.00;99.90;;;;;;5036617;28;20022;-67
2024/02/21 06:21:45;;;;;;;16.98;5.13;;;8.00;99.90;;;;;;5039625;28;20032;-67
2024/02/21 06:24:12;;;;;;;12.98;5.32;;;8.00;99.90;;;;;;5041530;28;20028;-67
2024/02/21 06:26:40;;;;;;;15.43;5.10;;;8.00;99.90;;;;;;5036433;28;20041;-67
2024/02/21 06:29:05;;;;;;;13.30;4.22;;;8.00;99.90;;;;;;5038572;28;20034;-67
2024/02/21 06:31:31;;;;;;;16.95;5.70;;;8.00;99.90;;;;;;5042861;28;20373;-67
2024/02/21 06:33:57;;;;;;;14.85;5.35;;;8.00;99.90;;;;;;5047540;28;20029;-67
2024/02/21 06:36:23;;;;;;;17.33;4.45;;;8.00;99.90;;;;;;5043497;28;20092;-68
2024/02/21 06:38:48;;;;;;;10.02;3.20;;;8.00;99.90;;;;;;5041379;28;20468;-65
2024/02/21 06:41:21;;;;;;;14.77;4.05;;;8.00;99.90;;;;;;5038006;28;20075;-66
2024/02/21 06:43:48;;;;;;;15.25;4.40;;;8.10;99.90;;;;;;5043590;28;20333;-66
2024/02/21 06:46:28;;;;;;;13.27;3.95;;;8.10;99.90;;;;;;5045867;28;20033;-66
2024/02/21 06:48:56;;;;;;;16.00;4.20;;;8.10;99.90;;;;;;5037336;28;20030;-66
2024/02/21 06:51:22;;;;;;;12.30;4.68;;;8.10;99.90;;;;;;5040313;28;20079;-66
2024/02/21 06:53:48;;;;;;;14.18;4.63;;;8.10;99.90;;;;;;5039238;28;20043;-65
2024/02/21 06:56:13;;;;;;;12.45;5.05;;;8.10;99.90;;;;;;5046522;28;20022;-65
2024/02/21 06:58:39;;;;;;;13.77;4.63;;;8.20;99.90;;;;;;5045754;28;20117;-64
2024/02/21 07:01:05;;;;;;;12.30;4.55;;;8.10;99.90;;;;;;5044384;28;20013;-65
2024/02/21 07:03:30;;;;;;;12.50;4.40;;;8.20;99.90;;;;;;5045907;28;20029;-65
2024/02/21 07:05:56;;;;;;;12.23;4.43;;;8.20;99.90;;;;;;5037673;28;20021;-64
2024/02/21 07:08:21;;;;;;;14.57;4.32;;;8.30;99.90;;;;;;5037117;28;20080;-64
2024/02/21 07:10:47;;;;;;;12.43;3.67;;;8.20;99.90;;;;;;5041375;28;20036;-64
2024/02/21 07:13:15;;;;;;;15.93;4.70;;;8.20;99.90;;;;;;5043709;28;20431;-63
2024/02/21 07:15:41;;;;;;;13.65;4.20;;;8.20;99.90;;;;;;5042989;28;20032;-63
2024/02/21 07:18:07;;;;;;;13.18;3.85;;;8.20;99.90;;;;;;5048262;28;20112;-63
2024/02/21 07:20:33;;;;;;;14.52;4.80;;;8.20;99.90;;;;;;5042589;28;20029;-65
2024/02/21 07:22:59;;;;;;;11.50;4.00;;;8.30;99.90;;;;;;5040123;28;20682;-65
2024/02/21 07:25:25;;;;;;;10.13;4.25;;;8.20;99.90;;;;;;5037824;28;20044;-65
2024/02/21 07:27:50;;;;;;;12.57;4.75;;;8.30;99.90;;;;;;5044003;28;20033;-65
2024/02/21 07:30:16;;;;;;;13.75;4.43;;;8.30;99.90;;;;;;5057189;28;20025;-63
2024/02/21 07:32:42;;;;;;;11.15;4.10;;;8.30;99.90;;;;;;5040798;28;20381;-63
2024/02/21 07:35:11;;;;;;;11.65;4.43;;;8.30;99.90;;;;;;5041961;28;20029;-63
2024/02/21 07:37:37;;;;;;;13.05;4.28;;;8.40;99.90;;;;;;5038787;28;20095;-63
2024/02/21 07:40:12;;;;;;;12.13;4.55;;;8.40;99.90;;;;;;5033346;28;20132;-66
2024/02/21 07:42:37;;;;;;;13.73;4.57;;;8.40;99.90;;;;;;5044675;28;20028;-63
2024/02/21 07:45:03;;;;;;;15.38;3.95;;;8.40;99.90;;;;;;5037736;28;20044;-63
2024/02/21 07:47:29;;;;;;;15.63;4.15;;;8.40;99.90;;;;;;5036628;28;20048;-63
2024/02/21 07:49:54;;;;;;;16.20;4.97;;;8.50;99.90;;;;;;5038125;28;20026;-63
2024/02/21 07:52:20;;;;;;;11.32;4.03;;;8.50;99.90;;;;;;5037641;28;20052;-64
2024/02/21 07:54:46;;;;;;;12.98;4.38;;;8.60;99.90;;;;;;5040698;28;20032;-63
2024/02/21 07:57:11;;;;;;;16.58;4.60;;;8.60;99.90;;;;;;5041139;28;20032;-63
2024/02/21 07:59:37;;;;;;;11.20;3.90;;;8.70;99.90;;;;;;5044835;28;20026;-63
2024/02/21 08:02:06;;;;;;;12.93;4.72;;;8.70;99.90;;;;;;5040340;28;20045;-63
2024/02/21 08:04:32;;;;;;;12.90;5.45;;;8.70;99.90;;;;;;5043378;28;20101;-63
2024/02/21 08:07:01;;;;;;;15.60;5.18;;;8.80;99.90;;;;;;5041766;28;20128;-63
2024/02/21 08:09:27;;;;;;;10.02;3.78;;;8.60;99.90;;;;;;5037760;28;20029;-63
2024/02/21 08:11:53;;;;;;;13.55;4.60;;;8.70;99.90;;;;;;5038835;28;20510;-63
2024/02/21 08:14:19;;;;;;;16.15;5.05;;;8.70;99.90;;;;;;5036039;28;20052;-64
2024/02/21 08:16:45;;;;;;;16.27;5.05;;;8.70;99.90;;;;;;5036848;28;20020;-63
2024/02/21 08:19:11;;;;;;;14.18;4.90;;;8.80;99.90;;;;;;5038044;28;20079;-64
2024/02/21 08:21:36;;;;;;;13.32;4.45;;;8.90;99.90;;;;;;5035734;28;20056;-63
2024/02/21 08:24:02;;;;;;;10.73;3.30;;;8.90;99.90;;;;;;5033502;28;20040;-64
2024/02/21 08:26:30;;;;;;;12.75;4.78;;;8.90;99.90;;;;;;5039640;28;20025;-64
2024/02/21 08:28:59;;;;;;;11.85;4.97;;;8.90;99.90;;;;;;5039474;28;20495;-64
2024/02/21 08:31:30;;;;;;;14.00;5.00;;;9.00;99.90;;;;;;5039783;28;20495;-63
2024/02/21 08:34:02;;;;;;;12.20;4.50;;;8.90;99.90;;;;;;5034817;28;20033;-64
2024/02/21 08:36:28;;;;;;;16.58;4.85;;;9.10;99.90;;;;;;5034946;28;20079;-63
2024/02/21 08:38:54;;;;;;;12.63;4.00;;;9.10;99.90;;;;;;5034991;28;20037;-63
2024/02/21 08:41:21;;;;;;;9.88;4.05;;;9.10;99.90;;;;;;5035493;28;20034;-64
2024/02/21 08:43:47;;;;;;;12.55;4.07;;;9.10;99.90;;;;;;5036963;28;20112;-64
2024/02/21 08:46:12;;;;;;;12.73;4.00;;;9.20;99.90;;;;;;5035460;28;20136;-64
2024/02/21 08:48:38;;;;;;;12.73;4.13;;;9.20;99.90;;;;;;5033325;28;20029;-64
2024/02/21 08:51:04;;;;;;;12.68;3.50;;;9.20;99.90;;;;;;5035109;28;20461;-64
2024/02/21 08:53:29;;;;;;;12.07;3.28;;;9.10;99.90;;;;;;5039939;28;20033;-65
2024/02/21 08:55:55;;;;;;;8.55;3.33;;;9.10;99.90;;;;;;5035390;28;20060;-65
2024/02/21 08:58:23;;;;;;;9.77;3.17;;;9.00;99.90;;;;;;5036611;28;20033;-65
2024/02/21 09:00:48;;;;;;;12.23;3.90;;;9.00;99.90;;;;;;5038266;28;20020;-66
2024/02/21 09:03:14;;;;;;;14.38;3.70;;;9.00;99.90;;;;;;5032616;28;20033;-65
2024/02/21 09:05:41;;;;;;;17.58;5.50;;;8.90;99.90;;;;;;5037409;28;20059;-64
2024/02/21 09:08:06;;;;;;;19.55;5.18;;;8.90;99.90;;;;;;5033513;28;20310;-64
2024/02/21 09:10:32;;;;;;;15.75;4.50;;;8.70;99.90;;;;;;5037541;28;20021;-64
2024/02/21 09:12:57;;;;;;;16.92;5.10;;;8.70;99.90;;;;;;5038598;28;20064;-65
2024/02/21 09:15:24;;;;;;;11.68;4.50;;;8.70;99.90;;;;;;5039648;28;20048;-65
2024/02/21 09:17:49;;;;;;;19.90;5.32;;;8.60;99.90;;;;;;5038350;28;20204;-66
2024/02/21 09:20:16;;;;;;;16.50;5.65;;;8.70;99.90;;;;;;5035113;28;20104;-65
2024/02/21 09:22:42;;;;;;;16.42;4.50;;;8.60;99.90;;;;;;5036614;28;20014;-65
2024/02/21 09:25:10;;;;;;;14.10;5.85;;;8.60;99.90;;;;;;5036084;28;20027;-65
2024/02/21 09:27:35;;;;;;;18.67;5.18;;;8.60;99.90;;;;;;5036571;28;20057;-65
2024/02/21 09:30:01;;;;;;;15.93;6.32;;;8.60;99.90;;;;;;5035652;28;20060;-65
2024/02/21 09:32:27;;;;;;;13.05;5.10;;;8.70;99.90;;;;;;5035141;28;20488;-65
2024/02/21 09:34:54;;;;;;;21.17;6.43;;;8.90;99.90;;;;;;5035866;28;20470;-65
2024/02/21 09:37:20;;;;;;;13.88;4.80;;;9.00;99.90;;;;;;5035724;28;20075;-65
2024/02/21 09:39:47;;;;;;;15.00;6.05;;;8.90;99.90;;;;;;5042145;28;20025;-65
2024/02/21 09:42:17;;;;;;;18.85;6.10;;;8.80;99.90;;;;;;5045128;28;20033;-64
2024/02/21 09:44:45;;;;;;;12.05;5.60;;;8.70;99.90;;;;;;5040580;28;20037;-64
2024/02/21 09:47:24;;;;;;;17.58;5.28;;;8.80;99.90;;;;;;5037547;28;20047;-66
2024/02/21 09:49:51;;;;;;;13.82;5.03;;;8.80;99.90;;;;;;5037141;28;20107;-67
2024/02/21 09:52:19;;;;;;;12.73;5.20;;;8.90;99.90;;;;;;5039594;28;20036;-66
2024/02/21 09:54:45;;;;;;;11.65;4.72;;;9.00;99.90;;;;;;5040735;28;20024;-66
2024/02/21 09:57:11;;;;;;;16.42;5.05;;;9.00;99.90;;;;;;5038235;28;20032;-66
2024/02/21 09:59:37;;;;;;;12.45;4.75;;;9.00;99.90;;;;;;5039242;28;20025;-66
2024/02/21 10:02:04;;;;;;;10.02;3.30;;;8.90;99.90;;;;;;5044332;28;20026;-65
2024/02/21 10:04:30;;;;;;;15.10;4.65;;;8.90;99.90;;;;;;5039493;28;20029;-65
2024/02/21 10:06:56;;;;;;;17.45;4.90;;;8.90;99.90;;;;;;5037703;28;20025;-65
2024/02/21 10:09:29;;;;;;;14.98;4.70;;;8.80;99.90;;;;;;5036912;28;20052;-66
2024/02/21 10:12:06;;;;;;;10.07;4.10;;;8.80;99.90;;;;;;5039795;28;20025;-66
2024/02/21 10:14:32;;;;;;;15.07;4.78;;;8.80;99.90;;;;;;5038891;28;20057;-65
2024/02/21 10:17:01;;;;;;;15.40;4.53;;;8.80;99.90;;;;;;5039221;28;20075;-66
2024/02/21 10:19:27;;;;;;;21.03;5.27;;;8.80;99.90;;;;;;5038515;28;20102;-65
2024/02/21 10:22:04;;;;;;;15.00;4.20;;;8.80;99.90;;;;;;5038165;28;20339;-65
2024/02/21 10:24:32;;;;;;;12.63;4.13;;;8.80;99.90;;;;;;5039144;28;20409;-65
2024/02/21 10:27:03;;;;;;;18.70;6.25;;;8.70;99.90;;;;;;5037481;28;20071;-66
2024/02/21 10:29:30;;;;;;;9.13;3.83;;;8.70;99.90;;;;;;5037473;28;20026;-66
2024/02/21 10:32:13;;;;;;;13.85;4.80;;;8.60;99.90;;;;;;5037977;28;20373;-65
2024/02/21 10:34:40;;;;;;;13.98;4.50;;;8.70;99.90;;;;;;5040168;28;20080;-66
2024/02/21 10:37:07;;;;;;;13.15;4.70;;;8.50;99.90;;;;;;5040578;28;20103;-65
2024/02/21 10:39:43;;;;;;;13.27;4.20;;;8.60;99.90;;;;;;5036644;28;20021;-65
2024/02/21 10:42:11;;;;;;;14.95;4.72;;;8.60;99.90;;;;;;5038429;28;20025;-66
2024/02/21 10:44:39;;;;;;;12.45;4.32;;;8.60;99.90;;;;;;5038113;28;20448;-66
2024/02/21 10:47:08;;;;;;;12.65;4.53;;;8.70;99.90;;;;;;5040542;28;20059;-65
2024/02/21 10:49:44;;;;;;;15.13;4.40;;;8.70;99.90;;;;;;5038173;28;20031;-65
2024/02/21 10:52:25;;;;;;;17.15;5.28;;;8.80;99.90;;;;;;5038184;28;20075;-65
2024/02/21 10:55:03;;;;;;;16.23;4.70;;;8.80;99.90;;;;;;5040477;28;20029;-65
2024/02/21 10:57:31;;;;;;;15.50;5.03;;;8.80;99.90;;;;;;5039203;28;20083;-65
2024/02/21 10:59:59;;;;;;;14.57;5.30;;;8.90;99.90;;;;;;5038372;28;20021;-65
2024/02/21 11:02:28;;;;;;;14.00;6.07;;;8.90;99.90;;;;;;5040994;28;20031;-65
2024/02/21 11:04:55;;;;;;;15.82;5.20;;;8.90;99.90;;;;;;5037071;28;20356;-65
2024/02/21 11:07:21;;;;;;;13.80;5.28;;;8.90;99.90;;;;;;5036811;28;20108;-65
2024/02/21 11:09:54;;;;;;;16.45;5.10;;;9.10;99.90;;;;;;5035892;28;20121;-65
2024/02/21 11:12:21;;;;;;;11.65;5.03;;;9.20;99.90;;;;;;5039254;28;20037;-65
2024/02/21 11:14:47;;;;;;;16.15;6.47;;;9.30;99.90;;;;;;5037299;28;20545;-66
2024/02/21 11:17:21;;;;;;;10.90;4.07;;;9.40;99.90;;;;;;5040078;28;20202;-65
2024/02/21 11:19:47;;;;;;;11.85;5.22;;;9.40;99.90;;;;;;5037636;28;20017;-65
2024/02/21 11:22:17;;;;;;;14.50;5.45;;;9.40;99.90;;;;;;5037933;28;20132;-65
2024/02/21 11:24:43;;;;;;;12.88;4.15;;;9.50;99.90;;;;;;5036554;28;20029;-66
2024/02/21 11:27:15;;;;;;;18.73;5.82;;;9.70;99.90;;;;;;5036156;28;20056;-66
2024/02/21 11:29:48;;;;;;;12.90;4.95;;;9.90;99.90;;;;;;5036714;28;20044;-66
2024/02/21 11:32:15;;;;;;;13.32;4.68;;;10.10;99.90;;;;;;5035936;28;20109;-66
2024/02/21 11:34:52;;;;;;;13.32;4.35;;;10.20;99.90;;;;;;5036023;28;20480;-66
2024/02/21 11:37:18;;;;;;;17.80;4.28;;;10.20;99.90;;;;;;5035250;28;20014;-66
2024/02/21 11:39:43;;;;;;;13.50;5.07;;;10.10;99.90;;;;;;5034678;28;20450;-66
2024/02/21 11:42:09;;;;;;;10.20;4.15;;;10.20;99.90;;;;;;5035434;28;20036;-66
2024/02/21 11:44:40;;;;;;;13.13;4.80;;;10.40;99.90;;;;;;5037094;28;20083;-66
2024/02/21 11:47:09;;;;;;;13.90;4.85;;;10.40;99.90;;;;;;5037748;28;20017;-66
2024/02/21 11:49:42;;;;;;;14.57;4.32;;;10.40;99.90;;;;;;5038386;28;20125;-66
2024/02/21 11:52:08;;;;;;;11.85;4.47;;;10.30;99.90;;;;;;5038182;28;20539;-66
2024/02/21 11:54:34;;;;;;;13.80;4.38;;;10.20;99.90;;;;;;5034685;28;20041;-66
2024/02/21 11:57:01;;;;;;;14.55;4.50;;;10.10;99.90;;;;;;5037787;28;20043;-66
2024/02/21 11:59:27;;;;;;;13.65;4.30;;;10.20;99.90;;;;;;5038513;28;20040;-66
2024/02/21 12:01:53;;;;;;;12.70;4.00;;;10.50;99.90;;;;;;5036977;28;20025;-66
2024/02/21 12:04:23;;;;;;;11.88;3.95;;;10.70;99.90;;;;;;5034787;28;20041;-66
2024/02/21 12:06:49;;;;;;;;;;;10.80;99.90;;;;;;5034878;28;20044;-66
2024/02/21 12:09:16;;;;;;;9.88;2.95;;;10.80;99.90;;;;;;5039612;28;20376;-66
2024/02/21 12:11:43;;;;;;;10.30;3.63;;;10.70;99.90;;;;;;5035414;28;20579;-66
2024/02/21 12:14:09;;;;;;;6.88;2.58;;;10.60;99.90;;;;;;5037883;28;20049;-66
2024/02/21 12:16:38;;;;;;;12.05;3.53;;;10.50;99.90;;;;;;5035754;28;20025;-66
2024/02/21 12:19:04;;;;;;;8.10;3.22;;;10.50;99.90;;;;;;5034763;28;20041;-66
2024/02/21 12:21:32;;;;;;;10.98;3.47;;;10.60;99.90;;;;;;5036130;28;20380;-65
2024/02/21 12:23:58;;;;;;;9.45;3.40;;;10.70;99.90;;;;;;5037276;28;20037;-65
2024/02/21 12:26:24;;;;;;;10.02;3.53;;;10.90;99.90;;;;;;5037033;28;20029;-65
2024/02/21 12:28:49;;;;;;;7.95;3.00;;;11.00;99.90;;;;;;5036671;28;20384;-65
2024/02/21 12:31:16;;;;;;;10.93;3.28;;;11.10;99.90;;;;;;5038659;28;20516;-65
2024/02/21 12:33:42;;;;;;;9.35;2.67;;;11.10;99.90;;;;;;5033141;28;20053;-65
2024/02/21 12:36:08;;;;;;;11.35;2.97;;;11.10;99.90;;;;;;5034875;28;20477;-65
2024/02/21 12:38:34;;;;;;;13.55;3.33;;;11.00;99.90;;;;;;5035301;28;20017;-66
2024/02/21 12:41:01;;;;;;;10.43;3.72;;;10.90;99.90;;;;;;5036104;28;20025;-66
2024/02/21 12:43:26;;;;;;;16.20;3.17;;;10.80;99.90;;;;;;5036084;28;20078;-65